Time;durP1;ratioP1;P1;durP2;ratioP2;P2;SDS_P1;SDS_P2;PMS_P1;PMS_P2;Temp;Humidity;BMP_temperature;BMP_pressure;BME280_temperature;BME280_humidity;BME280_pressure;Samples;Min_cycle;Max_cycle;Signal;HPM_P1;HPM_P2
2024/02/06 00:00:04;;;;;;;9.43;5.50;;;9.80;98.80;;;;;;10403585;28;20263;-64
2024/02/06 00:05:08;;;;;;;11.47;5.10;;;9.80;98.90;;;;;;10401183;28;20240;-64
2024/02/06 00:10:15;;;;;;;6.97;5.30;;;9.80;99.00;;;;;;10405246;28;20274;-65
2024/02/06 00:15:20;;;;;;;6.77;5.23;;;9.90;98.80;;;;;;10403673;28;20221;-64
2024/02/06 00:20:24;;;;;;;9.02;5.25;;;9.90;99.00;;;;;;10404266;28;20258;-64
2024/02/06 00:25:27;;;;;;;8.83;4.87;;;9.90;98.90;;;;;;10397139;28;20261;-65
2024/02/06 00:30:32;;;;;;;10.43;5.40;;;9.90;98.90;;;;;;10394397;28;20251;-65
2024/02/06 00:35:36;;;;;;;5.87;5.20;;;10.00;98.70;;;;;;10385880;28;20274;-64
2024/02/06 00:40:39;;;;;;;8.57;5.13;;;10.00;98.60;;;;;;10391676;28;20196;-64
2024/02/06 00:45:44;;;;;;;7.70;5.37;;;10.00;98.80;;;;;;10397867;28;20706;-65
2024/02/06 00:50:48;;;;;;;8.00;5.60;;;10.00;98.60;;;;;;10398173;28;20196;-65
2024/02/06 00:55:52;;;;;;;7.90;5.40;;;10.00;98.70;;;;;;10397185;28;20251;-64
2024/02/06 01:00:57;;;;;;;9.13;5.35;;;10.00;98.70;;;;;;10394793;28;20205;-64
2024/02/06 01:06:01;;;;;;;9.43;5.37;;;10.00;98.80;;;;;;10396626;28;20259;-64
2024/02/06 01:11:05;;;;;;;8.15;4.90;;;10.00;98.60;;;;;;10398077;28;20257;-66
2024/02/06 01:16:10;;;;;;;8.37;4.80;;;10.10;98.60;;;;;;10395565;28;20279;-64
2024/02/06 01:21:13;;;;;;;12.17;5.40;;;10.10;98.70;;;;;;10398812;28;20209;-66
2024/02/06 01:26:17;;;;;;;8.63;4.83;;;10.10;98.70;;;;;;10397458;28;20636;-66
2024/02/06 01:31:24;;;;;;;7.65;4.50;;;10.10;98.80;;;;;;10393949;28;20204;-64
2024/02/06 01:36:28;;;;;;;8.77;4.67;;;10.10;98.90;;;;;;10392841;28;20753;-66
2024/02/06 01:41:32;;;;;;;7.03;4.47;;;10.10;98.80;;;;;;10395814;28;20224;-65
2024/02/06 01:46:37;;;;;;;8.95;4.13;;;10.10;98.60;;;;;;10390529;28;20942;-65
2024/02/06 01:51:41;;;;;;;6.90;4.10;;;10.20;98.60;;;;;;10398460;28;20224;-63
2024/02/06 01:56:45;;;;;;;7.70;4.17;;;10.20;98.50;;;;;;10396053;28;20208;-64
2024/02/06 02:01:51;;;;;;;6.20;4.30;;;10.20;98.50;;;;;;10391839;28;20351;-66
2024/02/06 02:06:55;;;;;;;6.80;3.70;;;10.20;98.30;;;;;;10392045;28;20248;-65
2024/02/06 02:11:59;;;;;;;7.20;4.30;;;10.30;98.40;;;;;;10392104;28;20220;-64
2024/02/06 02:17:04;;;;;;;8.30;4.13;;;10.30;98.00;;;;;;10394554;28;20244;-65
2024/02/06 02:22:09;;;;;;;6.90;3.80;;;10.30;98.10;;;;;;10395237;28;20855;-65
2024/02/06 02:27:13;;;;;;;7.57;3.97;;;10.30;97.90;;;;;;10389726;28;20723;-64
2024/02/06 02:32:18;;;;;;;7.97;3.73;;;10.40;98.10;;;;;;10398897;28;20357;-63
2024/02/06 02:37:23;;;;;;;6.88;3.50;;;10.40;97.70;;;;;;10389493;28;20205;-66
2024/02/06 02:42:27;;;;;;;7.97;3.53;;;10.40;97.50;;;;;;10393588;28;20628;-66
2024/02/06 02:47:32;;;;;;;8.05;4.10;;;10.40;97.50;;;;;;10389543;28;20252;-63
2024/02/06 02:52:37;;;;;;;8.87;4.27;;;10.40;97.50;;;;;;10394759;28;21426;-65
2024/02/06 02:57:40;;;;;;;6.97;3.80;;;10.40;97.40;;;;;;10396751;28;20679;-64
2024/02/06 03:02:44;;;;;;;7.75;3.67;;;10.40;97.50;;;;;;10390307;28;20765;-65
2024/02/06 03:07:53;;;;;;;8.63;4.13;;;10.40;97.40;;;;;;10393494;28;20252;-64
2024/02/06 03:12:57;;;;;;;14.17;4.60;;;10.50;97.40;;;;;;10393197;28;20251;-63
2024/02/06 03:18:00;;;;;;;9.23;4.17;;;10.50;97.30;;;;;;10394677;28;20193;-64
2024/02/06 03:23:06;;;;;;;8.60;3.57;;;10.50;97.30;;;;;;10388104;28;20867;-65
2024/02/06 03:28:09;;;;;;;7.67;3.90;;;10.50;97.30;;;;;;10389069;28;20295;-64
2024/02/06 03:33:13;;;;;;;7.80;3.80;;;10.50;97.20;;;;;;10393302;28;20301;-64
2024/02/06 03:38:18;;;;;;;6.93;3.67;;;10.50;97.40;;;;;;10389727;28;20228;-65
2024/02/06 03:43:21;;;;;;;7.03;3.60;;;10.50;97.20;;;;;;10395463;28;20832;-67
2024/02/06 03:48:25;;;;;;;9.38;4.07;;;10.50;97.10;;;;;;10392146;28;20252;-65
2024/02/06 03:53:30;;;;;;;7.43;3.70;;;10.50;97.30;;;;;;10386611;28;20256;-63
2024/02/06 03:58:34;;;;;;;6.38;3.67;;;10.50;97.10;;;;;;10391862;28;20196;-64
2024/02/06 04:03:37;;;;;;;10.02;3.58;;;10.50;96.80;;;;;;10408167;28;20286;-64
2024/02/06 04:08:42;;;;;;;6.00;3.20;;;10.50;97.00;;;;;;10391801;28;20260;-68
2024/02/06 04:13:46;;;;;;;5.57;3.40;;;10.50;96.80;;;;;;10398180;28;20269;-64
2024/02/06 04:18:50;;;;;;;5.90;3.28;;;10.60;97.20;;;;;;10403571;28;20205;-64
2024/02/06 04:23:56;;;;;;;7.27;4.03;;;10.60;96.90;;;;;;10393693;28;20266;-63
2024/02/06 04:29:00;;;;;;;7.20;3.80;;;10.60;96.80;;;;;;10397293;28;20710;-65
2024/02/06 04:34:03;;;;;;;8.20;3.80;;;10.60;96.80;;;;;;10474100;22;20936;-64
2024/02/06 04:39:10;;;;;;;8.60;4.03;;;10.60;96.80;;;;;;10488907;28;20562;-63
2024/02/06 04:44:14;;;;;;;7.97;3.50;;;10.60;96.90;;;;;;10453297;28;20277;-63
2024/02/06 04:49:17;;;;;;;9.13;3.53;;;10.60;97.00;;;;;;10436920;28;20244;-62
2024/02/06 04:54:23;;;;;;;9.55;3.42;;;10.60;96.70;;;;;;10437988;28;20224;-62
2024/02/06 04:59:27;;;;;;;7.00;3.40;;;10.60;96.40;;;;;;10438799;28;20196;-62
2024/02/06 05:04:31;;;;;;;7.40;3.63;;;10.60;96.60;;;;;;10442159;28;20232;-63
2024/02/06 05:09:36;;;;;;;7.80;3.90;;;10.60;96.60;;;;;;10443278;28;20241;-62
2024/02/06 05:14:40;;;;;;;7.45;3.70;;;10.60;96.80;;;;;;10440238;28;20215;-62
2024/02/06 05:19:44;;;;;;;7.15;3.47;;;10.60;96.80;;;;;;10442775;28;20664;-62
2024/02/06 05:24:49;;;;;;;5.80;3.80;;;10.60;97.00;;;;;;10444304;28;20220;-62
2024/02/06 05:29:52;;;;;;;6.28;3.92;;;10.60;96.90;;;;;;10447757;28;20243;-65
2024/02/06 05:34:57;;;;;;;9.48;4.10;;;10.60;96.70;;;;;;10441934;28;20231;-62
2024/02/06 05:40:04;;;;;;;5.78;3.70;;;10.60;96.80;;;;;;10440913;28;20265;-63
2024/02/06 05:45:09;;;;;;;7.13;3.88;;;10.60;97.00;;;;;;10442087;28;20277;-64
2024/02/06 05:50:13;;;;;;;11.70;4.40;;;10.60;97.10;;;;;;10448516;28;20288;-64
2024/02/06 05:55:19;;;;;;;7.43;3.88;;;10.60;97.50;;;;;;10442154;28;20236;-63
2024/02/06 06:00:26;;;;;;;9.75;4.35;;;10.60;97.30;;;;;;10444463;28;20203;-63
2024/02/06 06:05:30;;;;;;;6.50;4.30;;;10.60;97.30;;;;;;10440890;28;20224;-64
2024/02/06 06:10:35;;;;;;;8.43;4.35;;;10.60;97.40;;;;;;10442451;28;20255;-61
2024/02/06 06:15:39;;;;;;;8.98;4.13;;;10.60;97.40;;;;;;10438138;28;20258;-62
2024/02/06 06:20:45;;;;;;;10.10;5.18;;;10.60;97.50;;;;;;10440904;28;20211;-62
2024/02/06 06:25:51;;;;;;;10.48;4.72;;;10.60;97.60;;;;;;10437318;28;20258;-64
2024/02/06 06:30:54;;;;;;;9.95;4.80;;;10.60;97.60;;;;;;10442067;28;20247;-62
2024/02/06 06:35:58;;;;;;;11.43;4.60;;;10.60;97.40;;;;;;10438457;28;20750;-62
2024/02/06 06:41:03;;;;;;;12.50;4.57;;;10.70;97.40;;;;;;10442725;28;20246;-62
2024/02/06 06:46:07;;;;;;;8.15;4.70;;;10.70;97.40;;;;;;10442542;28;20223;-62
2024/02/06 06:51:11;;;;;;;9.75;4.80;;;10.70;97.50;;;;;;10440866;28;20227;-62
2024/02/06 06:56:20;;;;;;;8.43;4.30;;;10.70;97.40;;;;;;10439098;28;20307;-63
2024/02/06 07:01:23;;;;;;;7.93;4.85;;;10.70;97.40;;;;;;10430251;28;20238;-63
2024/02/06 07:06:27;;;;;;;10.50;4.65;;;10.70;97.30;;;;;;10439515;28;20257;-63
2024/02/06 07:11:32;;;;;;;9.13;5.45;;;10.70;97.30;;;;;;10436380;28;20258;-63
2024/02/06 07:16:36;;;;;;;12.63;5.18;;;10.70;97.40;;;;;;10431798;28;20203;-63
2024/02/06 07:21:40;;;;;;;12.60;6.40;;;10.80;97.70;;;;;;10439121;28;20220;-63
2024/02/06 07:26:45;;;;;;;10.07;4.82;;;10.80;97.70;;;;;;10437530;28;20772;-64
2024/02/06 07:31:49;;;;;;;9.43;5.88;;;10.80;97.40;;;;;;10436106;28;20448;-64
2024/02/06 07:36:53;;;;;;;10.55;5.00;;;10.90;97.40;;;;;;10433282;28;20226;-64
2024/02/06 07:41:58;;;;;;;9.48;5.25;;;10.90;97.30;;;;;;10444267;28;20697;-65
2024/02/06 07:47:02;;;;;;;9.00;5.05;;;10.90;97.30;;;;;;10445819;28;20663;-67
2024/02/06 07:52:06;;;;;;;8.98;5.10;;;10.90;97.30;;;;;;10447427;28;20254;-64
2024/02/06 07:57:11;;;;;;;12.50;6.55;;;10.90;97.40;;;;;;10446612;28;20577;-64
2024/02/06 08:02:15;;;;;;;11.50;5.70;;;10.90;97.40;;;;;;10447472;28;20211;-64
2024/02/06 08:07:20;;;;;;;8.48;4.40;;;10.90;97.60;;;;;;10449502;28;20254;-64
2024/02/06 08:12:27;;;;;;;11.20;5.60;;;10.90;97.40;;;;;;10442381;28;20228;-64
2024/02/06 08:17:31;;;;;;;11.20;4.25;;;10.90;97.60;;;;;;10441037;28;20314;-64
2024/02/06 08:22:36;;;;;;;10.73;4.65;;;10.90;97.40;;;;;;10447311;28;20219;-64
2024/02/06 08:27:41;;;;;;;11.07;5.20;;;10.90;97.60;;;;;;10446096;28;20196;-65
2024/02/06 08:32:45;;;;;;;10.30;4.20;;;10.90;97.60;;;;;;10446568;28;20231;-64
2024/02/06 08:37:48;;;;;;;7.05;4.10;;;10.90;97.70;;;;;;10440232;28;20203;-63
2024/02/06 08:42:53;;;;;;;12.40;4.50;;;10.90;97.70;;;;;;10447103;28;20219;-63
2024/02/06 08:47:57;;;;;;;8.65;4.88;;;11.00;97.70;;;;;;10445517;28;20199;-63
2024/02/06 08:53:01;;;;;;;8.30;4.18;;;11.00;97.50;;;;;;10444154;28;20886;-64
2024/02/06 08:58:06;;;;;;;9.07;4.30;;;11.00;97.40;;;;;;10438824;28;20199;-65
2024/02/06 09:03:09;;;;;;;8.48;4.53;;;11.10;97.30;;;;;;10438755;28;21152;-66
2024/02/06 09:08:13;;;;;;;8.80;4.05;;;11.10;97.20;;;;;;10435290;28;20654;-64
2024/02/06 09:13:21;;;;;;;9.00;4.78;;;11.20;97.40;;;;;;10444466;28;20228;-66
2024/02/06 09:18:26;;;;;;;9.20;4.28;;;11.20;97.20;;;;;;10441083;28;20207;-64
2024/02/06 09:23:30;;;;;;;11.23;4.00;;;11.20;97.30;;;;;;10445387;28;20623;-65
2024/02/06 09:28:35;;;;;;;12.65;4.70;;;11.30;97.20;;;;;;10445790;28;20226;-65
2024/02/06 09:33:38;;;;;;;11.38;4.07;;;11.30;97.20;;;;;;10442554;28;20247;-65
2024/02/06 09:38:42;;;;;;;10.55;4.47;;;11.30;97.10;;;;;;10437421;28;20230;-64
2024/02/06 09:43:48;;;;;;;7.65;4.22;;;11.40;97.10;;;;;;10435324;28;20219;-65
2024/02/06 09:48:52;;;;;;;10.00;4.20;;;11.50;97.00;;;;;;10439688;28;20285;-65
2024/02/06 09:53:59;;;;;;;10.73;4.43;;;11.50;97.50;;;;;;10448785;28;20227;-65
2024/02/06 09:59:06;;;;;;;8.85;4.53;;;11.40;98.40;;;;;;10441455;28;20229;-64
2024/02/06 10:04:12;;;;;;;7.47;4.60;;;11.30;98.50;;;;;;10442278;28;20232;-63
2024/02/06 10:09:17;;;;;;;10.23;5.18;;;11.30;99.00;;;;;;10446978;28;20200;-65
2024/02/06 10:14:22;;;;;;;12.65;6.18;;;11.20;99.30;;;;;;10437141;28;20224;-64
2024/02/06 10:19:32;;;;;;;14.82;6.75;;;11.20;99.70;;;;;;10439024;28;20246;-64
2024/02/06 10:24:36;;;;;;;10.68;5.32;;;11.20;99.90;;;;;;10447834;28;20601;-64
2024/02/06 10:29:41;;;;;;;9.02;5.00;;;11.20;99.90;;;;;;10438619;28;20199;-64
2024/02/06 10:34:46;;;;;;;11.70;5.20;;;11.20;99.80;;;;;;10436375;22;20282;-63
2024/02/06 10:39:51;;;;;;;11.27;5.40;;;11.20;99.60;;;;;;10408476;28;20266;-61
2024/02/06 10:45:00;;;;;;;12.32;5.38;;;11.20;99.60;;;;;;10399507;28;20301;-63
2024/02/06 10:50:09;;;;;;;11.10;5.28;;;11.30;99.90;;;;;;10392961;28;20216;-63
2024/02/06 10:55:14;;;;;;;9.15;5.25;;;11.30;99.90;;;;;;10403990;28;20220;-63
2024/02/06 11:00:21;;;;;;;8.85;5.28;;;11.30;99.90;;;;;;10395687;28;20222;-63
2024/02/06 11:05:28;;;;;;;14.40;5.68;;;11.20;99.90;;;;;;10394800;28;20221;-63
2024/02/06 11:10:36;;;;;;;10.38;5.60;;;11.20;99.90;;;;;;10403038;28;20600;-62
2024/02/06 11:15:44;;;;;;;10.30;5.80;;;11.20;99.90;;;;;;10396265;28;20216;-62
2024/02/06 11:20:52;;;;;;;15.55;6.70;;;11.20;99.90;;;;;;10396800;28;20750;-62
2024/02/06 11:25:56;;;;;;;10.57;5.93;;;11.20;99.90;;;;;;10405014;28;20216;-63
2024/02/06 11:31:03;;;;;;;12.05;5.65;;;11.30;99.90;;;;;;10400060;28;20227;-63
2024/02/06 11:36:11;;;;;;;10.98;5.22;;;11.30;99.90;;;;;;10393193;28;20758;-63
2024/02/06 11:41:17;;;;;;;13.65;5.63;;;11.30;99.90;;;;;;10395407;28;20193;-62
2024/02/06 11:46:24;;;;;;;12.15;5.88;;;11.40;99.90;;;;;;10402789;28;20282;-61
2024/02/06 11:51:28;;;;;;;8.00;5.78;;;11.40;99.90;;;;;;10402779;28;20473;-62
2024/02/06 11:56:32;;;;;;;10.07;6.05;;;11.40;99.90;;;;;;10391454;28;20259;-63
2024/02/06 12:01:37;;;;;;;9.57;5.38;;;11.30;99.90;;;;;;10397147;28;20201;-62
2024/02/06 12:06:44;;;;;;;9.43;5.70;;;11.20;99.90;;;;;;10398710;28;20996;-63
2024/02/06 12:11:48;;;;;;;11.13;5.13;;;11.20;99.90;;;;;;10401971;28;20297;-61
2024/02/06 12:16:53;;;;;;;11.45;5.55;;;11.20;99.90;;;;;;10395462;28;20213;-61
2024/02/06 12:22:00;;;;;;;11.02;5.93;;;11.20;99.90;;;;;;10397224;28;20662;-63
2024/02/06 12:27:05;;;;;;;12.45;6.65;;;11.30;99.90;;;;;;10411140;28;20262;-61
2024/02/06 12:32:10;;;;;;;12.18;5.80;;;11.30;99.90;;;;;;10399905;28;20259;-63
2024/02/06 12:37:14;;;;;;;9.25;5.82;;;11.30;99.90;;;;;;10403449;28;20201;-62
2024/02/06 12:42:18;;;;;;;10.10;5.22;;;11.30;99.90;;;;;;10405035;28;20623;-60
2024/02/06 12:47:23;;;;;;;15.55;5.53;;;11.30;99.90;;;;;;10400032;28;20255;-61
2024/02/06 12:52:26;;;;;;;8.55;5.55;;;11.40;99.90;;;;;;10402464;28;20228;-61
2024/02/06 12:57:30;;;;;;;12.55;5.13;;;11.50;99.90;;;;;;10406059;28;20204;-63
2024/02/06 13:02:35;;;;;;;8.38;4.53;;;11.50;99.90;;;;;;10402020;28;20220;-62
2024/02/06 13:07:39;;;;;;;9.60;4.47;;;11.60;99.80;;;;;;10401473;28;20197;-64
2024/02/06 13:12:43;;;;;;;8.52;5.00;;;11.60;99.60;;;;;;10404401;28;20225;-64
2024/02/06 13:17:48;;;;;;;8.73;4.60;;;11.60;99.30;;;;;;10411511;28;20300;-64
2024/02/06 13:22:53;;;;;;;9.75;4.32;;;11.70;99.00;;;;;;10403316;28;20228;-65
2024/02/06 13:27:57;;;;;;;9.30;4.63;;;11.80;98.90;;;;;;10402984;28;20274;-62
2024/02/06 13:33:03;;;;;;;9.55;3.95;;;11.80;98.50;;;;;;10400805;28;20283;-60
2024/02/06 13:38:08;;;;;;;8.50;4.20;;;11.90;98.60;;;;;;10406618;28;20644;-62
2024/02/06 13:43:12;;;;;;;7.95;4.35;;;11.90;98.50;;;;;;10402107;28;20212;-62
2024/02/06 13:48:17;;;;;;;9.10;4.05;;;11.90;98.10;;;;;;10409590;28;20574;-63
2024/02/06 13:53:21;;;;;;;9.18;3.97;;;11.90;98.40;;;;;;10398984;28;20325;-60
2024/02/06 13:58:25;;;;;;;10.70;4.20;;;12.00;98.40;;;;;;10405986;28;20326;-62
2024/02/06 14:03:30;;;;;;;9.25;4.28;;;12.00;98.00;;;;;;10407260;28;20212;-63
2024/02/06 14:08:33;;;;;;;9.60;4.30;;;12.00;98.00;;;;;;10400302;28;20204;-62
2024/02/06 14:13:37;;;;;;;10.15;4.18;;;12.00;98.00;;;;;;10393472;28;20847;-61
2024/02/06 14:18:42;;;;;;;8.00;3.63;;;12.00;97.80;;;;;;10394061;28;20254;-62
2024/02/06 14:23:46;;;;;;;9.15;3.35;;;12.00;97.70;;;;;;10402725;28;20266;-63
2024/02/06 14:28:49;;;;;;;7.50;3.40;;;12.00;97.40;;;;;;10402650;28;20200;-62
2024/02/06 14:33:54;;;;;;;6.93;3.42;;;12.10;97.10;;;;;;10398513;28;20240;-63
2024/02/06 14:38:58;;;;;;;9.95;4.00;;;12.10;97.40;;;;;;10404801;28;20200;-62
2024/02/06 14:44:02;;;;;;;7.50;3.10;;;12.10;97.00;;;;;;10399436;28;20558;-63
2024/02/06 14:49:07;;;;;;;9.30;3.85;;;12.10;97.00;;;;;;10394352;28;20224;-63
2024/02/06 14:54:10;;;;;;;7.95;3.33;;;12.10;96.80;;;;;;10398055;28;20252;-63
2024/02/06 14:59:14;;;;;;;8.00;3.33;;;12.10;96.90;;;;;;10404160;28;20263;-62
2024/02/06 15:04:19;;;;;;;6.38;3.20;;;12.10;97.30;;;;;;10398677;28;20270;-62
2024/02/06 15:09:22;;;;;;;6.20;2.85;;;12.10;97.00;;;;;;10393857;28;20204;-63
2024/02/06 15:14:26;;;;;;;5.47;3.40;;;12.10;96.80;;;;;;10401817;28;20255;-63
2024/02/06 15:19:35;;;;;;;6.85;2.78;;;12.10;96.90;;;;;;10391731;28;20258;-61
2024/02/06 15:24:38;;;;;;;9.90;3.00;;;12.10;97.30;;;;;;10399939;28;20220;-62
2024/02/06 15:29:42;;;;;;;4.90;3.10;;;12.00;97.70;;;;;;10404315;28;20204;-62
2024/02/06 15:34:47;;;;;;;8.32;3.47;;;12.00;98.30;;;;;;10396035;28;20274;-63
2024/02/06 15:39:51;;;;;;;7.93;3.92;;;11.80;98.80;;;;;;10395006;28;20212;-65
2024/02/06 15:44:55;;;;;;;5.85;3.75;;;11.70;99.50;;;;;;10400275;28;20655;-63
2024/02/06 15:50:00;;;;;;;7.03;4.50;;;11.60;99.90;;;;;;10399110;28;20227;-63
2024/02/06 15:55:04;;;;;;;7.10;3.90;;;11.50;99.90;;;;;;10402603;28;20225;-65
2024/02/06 16:00:09;;;;;;;8.30;4.80;;;11.40;99.90;;;;;;10402360;28;20254;-64
2024/02/06 16:05:14;;;;;;;9.13;5.00;;;11.30;99.90;;;;;;10402544;28;20286;-63
2024/02/06 16:10:21;;;;;;;8.80;4.75;;;11.30;99.90;;;;;;10403810;28;20668;-64
2024/02/06 16:15:24;;;;;;;7.80;4.40;;;11.30;99.90;;;;;;10401795;28;20773;-62
2024/02/06 16:20:29;;;;;;;9.85;5.07;;;11.30;99.90;;;;;;10405189;28;20209;-64
2024/02/06 16:25:33;;;;;;;6.88;4.70;;;11.20;99.90;;;;;;10409430;28;20216;-63
2024/02/06 16:30:37;;;;;;;7.38;4.47;;;11.20;99.90;;;;;;10403290;28;20204;-61
2024/02/06 16:35:42;;;;;;;8.30;4.53;;;11.20;99.90;;;;;;10401132;28;20224;-66
2024/02/06 16:40:46;;;;;;;7.53;4.20;;;11.30;99.90;;;;;;10405831;28;20232;-66
2024/02/06 16:45:50;;;;;;;7.03;4.18;;;11.20;99.90;;;;;;10403984;28;20289;-66
2024/02/06 16:50:55;;;;;;;8.20;4.10;;;11.20;99.90;;;;;;10404008;28;20200;-65
2024/02/06 16:55:59;;;;;;;7.25;4.10;;;11.30;99.90;;;;;;10396247;28;20718;-66
2024/02/06 17:01:03;;;;;;;7.85;3.53;;;11.30;99.90;;;;;;10403978;28;20200;-64
2024/02/06 17:06:08;;;;;;;8.30;3.80;;;11.30;99.90;;;;;;10399679;28;20681;-66
2024/02/06 17:11:13;;;;;;;8.65;3.78;;;11.30;99.90;;;;;;10395440;28;20262;-67
2024/02/06 17:16:16;;;;;;;9.63;4.13;;;11.30;99.90;;;;;;10402493;28;20237;-68
2024/02/06 17:21:22;;;;;;;7.10;4.47;;;11.30;99.90;;;;;;10395155;28;20213;-66
2024/02/06 17:26:26;;;;;;;10.95;4.03;;;11.30;99.90;;;;;;10393639;28;20280;-66
2024/02/06 17:31:29;;;;;;;11.18;4.13;;;11.40;99.90;;;;;;10403414;28;20204;-65
2024/02/06 17:36:38;;;;;;;11.95;4.70;;;11.40;99.90;;;;;;10405303;28;20509;-65
2024/02/06 17:41:45;;;;;;;8.30;4.15;;;11.50;99.90;;;;;;10399467;28;20212;-64
2024/02/06 17:46:49;;;;;;;10.85;3.97;;;11.50;99.90;;;;;;10396701;28;20215;-65
2024/02/06 17:51:54;;;;;;;8.55;4.05;;;11.50;99.90;;;;;;10406893;28;20699;-65
2024/02/06 17:57:01;;;;;;;10.13;4.20;;;11.60;99.90;;;;;;10401353;28;20741;-66
2024/02/06 18:02:04;;;;;;;8.35;3.53;;;11.60;99.90;;;;;;10400290;28;20272;-66
2024/02/06 18:07:09;;;;;;;7.28;3.35;;;11.60;99.90;;;;;;10398282;28;20250;-65
2024/02/06 18:12:15;;;;;;;11.43;3.92;;;11.60;99.90;;;;;;10393547;28;20754;-65
2024/02/06 18:17:19;;;;;;;6.90;3.70;;;11.60;99.90;;;;;;10404220;28;20253;-64
2024/02/06 18:22:26;;;;;;;10.63;4.07;;;11.60;99.90;;;;;;10399653;28;20291;-64
2024/02/06 18:27:33;;;;;;;9.52;4.07;;;11.70;99.90;;;;;;10392542;28;20200;-65
2024/02/06 18:32:40;;;;;;;14.27;4.18;;;11.70;99.70;;;;;;10403836;28;20247;-65
2024/02/06 18:37:45;;;;;;;10.02;4.40;;;11.70;99.50;;;;;;10394616;28;20200;-63
2024/02/06 18:42:49;;;;;;;7.57;3.92;;;11.70;99.30;;;;;;10397945;28;20224;-64
2024/02/06 18:47:53;;;;;;;11.40;4.43;;;11.70;99.10;;;;;;10396809;28;20544;-68
2024/02/06 18:52:57;;;;;;;13.02;4.93;;;11.80;99.10;;;;;;10404383;28;20589;-63
2024/02/06 18:58:04;;;;;;;15.45;4.57;;;11.80;98.70;;;;;;10398978;28;20262;-63
2024/02/06 19:03:08;;;;;;;16.45;4.65;;;11.80;98.70;;;;;;10403567;28;20633;-64
2024/02/06 19:08:13;;;;;;;9.38;4.35;;;11.80;98.80;;;;;;10407506;28;20227;-66
2024/02/06 19:13:17;;;;;;;12.65;4.10;;;11.80;98.60;;;;;;10399332;28;21310;-66
2024/02/06 19:18:21;;;;;;;10.80;4.68;;;11.90;98.20;;;;;;10404696;28;20764;-65
2024/02/06 19:23:26;;;;;;;15.77;5.07;;;11.90;98.60;;;;;;10403072;28;20266;-63
2024/02/06 19:28:29;;;;;;;11.40;4.53;;;11.90;99.00;;;;;;10405047;28;20200;-65
2024/02/06 19:33:33;;;;;;;8.70;4.18;;;11.80;99.10;;;;;;10404607;28;20618;-65
2024/02/06 19:38:38;;;;;;;11.57;4.22;;;11.80;99.30;;;;;;10405061;28;20200;-67
2024/02/06 19:43:42;;;;;;;9.07;3.92;;;11.80;99.30;;;;;;10406093;28;20217;-66
2024/02/06 19:48:45;;;;;;;9.57;4.20;;;11.80;99.20;;;;;;10402665;28;20679;-65
2024/02/06 19:53:50;;;;;;;11.80;4.85;;;11.80;99.40;;;;;;10402096;28;20631;-65
2024/02/06 19:58:54;;;;;;;9.18;4.10;;;11.80;99.30;;;;;;10408132;28;20212;-66
2024/02/06 20:03:59;;;;;;;12.43;4.65;;;11.80;99.30;;;;;;10410315;28;20216;-65
2024/02/06 20:09:06;;;;;;;8.63;4.50;;;11.80;99.30;;;;;;10404459;28;20200;-65
2024/02/06 20:14:11;;;;;;;11.98;3.97;;;11.80;99.20;;;;;;10404117;28;20318;-66
2024/02/06 20:19:15;;;;;;;10.63;4.50;;;11.80;99.20;;;;;;10407922;28;20246;-65
2024/02/06 20:24:20;;;;;;;8.23;4.43;;;11.90;99.30;;;;;;10412736;28;20225;-66
2024/02/06 20:29:24;;;;;;;9.63;4.03;;;11.90;99.20;;;;;;10410743;28;20780;-66
2024/02/06 20:34:28;;;;;;;9.45;4.60;;;11.90;99.00;;;;;;10412874;28;20246;-67
2024/02/06 20:39:35;;;;;;;8.40;4.38;;;11.90;99.00;;;;;;10408141;28;20219;-64
2024/02/06 20:44:39;;;;;;;9.93;4.85;;;11.90;98.90;;;;;;10401763;28;20241;-65
2024/02/06 20:49:43;;;;;;;9.40;4.55;;;11.90;98.90;;;;;;10406977;28;20266;-66
2024/02/06 20:54:49;;;;;;;10.07;5.30;;;11.90;99.10;;;;;;10413002;28;20766;-65
2024/02/06 20:59:52;;;;;;;9.60;4.50;;;11.90;98.40;;;;;;10400891;28;20212;-66
2024/02/06 21:04:56;;;;;;;8.00;3.88;;;11.90;98.40;;;;;;10402431;28;20788;-65
2024/02/06 21:10:01;;;;;;;10.80;4.20;;;11.90;98.30;;;;;;10400899;28;20284;-66
2024/02/06 21:15:05;;;;;;;10.35;3.97;;;12.00;98.20;;;;;;10404648;28;20656;-66
2024/02/06 21:20:11;;;;;;;8.45;3.92;;;12.00;98.00;;;;;;10410388;28;20204;-66
2024/02/06 21:25:17;;;;;;;10.48;4.35;;;12.00;98.20;;;;;;10410357;28;20278;-65
2024/02/06 21:30:21;;;;;;;10.85;3.95;;;12.00;97.60;;;;;;10407052;28;20671;-65
2024/02/06 21:35:24;;;;;;;9.98;3.80;;;12.00;97.50;;;;;;10408589;28;20255;-66
2024/02/06 21:40:29;;;;;;;11.02;4.05;;;12.00;97.30;;;;;;10409628;28;20201;-66
2024/02/06 21:45:33;;;;;;;9.27;3.80;;;12.00;97.50;;;;;;10406302;28;20224;-65
2024/02/06 21:50:37;;;;;;;12.27;4.80;;;12.00;97.10;;;;;;10414588;28;20212;-67
2024/02/06 21:55:45;;;;;;;11.30;4.10;;;12.10;97.00;;;;;;10398278;28;20221;-65
2024/02/06 22:00:48;;;;;;;9.88;3.85;;;12.10;97.10;;;;;;10409374;28;20227;-62
2024/02/06 22:05:52;;;;;;;11.57;3.75;;;12.10;96.90;;;;;;10413697;28;20211;-65
2024/02/06 22:10:58;;;;;;;8.43;4.05;;;12.10;97.30;;;;;;10397345;28;20200;-64
2024/02/06 22:16:02;;;;;;;7.82;3.70;;;12.10;96.90;;;;;;10399802;28;20274;-65
2024/02/06 22:21:08;;;;;;;8.23;3.78;;;12.10;97.20;;;;;;10406153;28;20678;-65
2024/02/06 22:26:17;;;;;;;9.65;4.03;;;12.10;97.00;;;;;;10412405;28;20250;-67
2024/02/06 22:31:21;;;;;;;11.55;4.25;;;12.10;97.20;;;;;;10411451;28;20556;-63
2024/02/06 22:36:25;;;;;;;10.50;4.18;;;12.10;97.10;;;;;;10494396;22;20246;-62
2024/02/06 22:41:30;;;;;;;10.25;4.30;;;12.10;97.00;;;;;;10486599;28;20758;-62
2024/02/06 22:46:33;;;;;;;7.15;3.80;;;12.10;97.30;;;;;;10446150;28;20265;-62
2024/02/06 22:51:37;;;;;;;10.48;4.38;;;12.00;97.60;;;;;;10433894;28;20196;-62
2024/02/06 22:56:42;;;;;;;9.57;4.38;;;12.00;98.00;;;;;;10427473;28;20258;-62
2024/02/06 23:01:47;;;;;;;9.50;4.72;;;11.90;98.10;;;;;;10435287;28;20597;-61
2024/02/06 23:06:50;;;;;;;9.13;4.10;;;11.90;98.70;;;;;;10429032;28;20269;-62
2024/02/06 23:11:56;;;;;;;11.55;4.22;;;11.90;98.60;;;;;;10432036;28;20207;-62
2024/02/06 23:17:00;;;;;;;10.60;3.75;;;11.80;99.00;;;;;;10427437;28;20255;-62
2024/02/06 23:22:03;;;;;;;9.80;4.28;;;11.80;99.30;;;;;;10434425;28;20246;-62
2024/02/06 23:27:08;;;;;;;10.48;4.15;;;11.70;99.60;;;;;;10432163;28;20215;-62
2024/02/06 23:32:12;;;;;;;10.65;4.07;;;11.70;99.90;;;;;;10437864;28;20601;-62
2024/02/06 23:37:16;;;;;;;12.68;4.00;;;11.60;99.90;;;;;;10427567;28;20285;-62
2024/02/06 23:42:21;;;;;;;10.80;4.50;;;11.60;99.90;;;;;;10429602;28;20199;-61
2024/02/06 23:47:25;;;;;;;9.27;4.43;;;11.60;99.90;;;;;;10428066;28;20196;-61
2024/02/06 23:52:28;;;;;;;8.60;4.63;;;11.50;99.90;;;;;;10433715;28;20227;-62
2024/02/06 23:57:35;;;;;;;8.48;4.53;;;11.50;99.90;;;;;;10440897;28;20255;-62
